Últimos artigos:
Acender um LED com a tensão da rede eléctrica
Programação do Yaesu FT-60 para os EasySats
AO-91 (RadFxSat Fox-1B) está no Ar!
CT7AFR DIY CW-Keyer
Shutdown button for the Raspberry Pi
Simple C code to dump I2C device memory
Últimas fotos:
Últimos METARs:
LPAZ 241630Z 08012KT 060V120 9999 FEW022 S...
LPFR 241630Z 10013KT 9999 FEW032 FEW035CB ...
LPHR 241630Z 06011KT 030V100 9999 FEW015 1...
LPLA 241600Z /////KT 9999 SCT015 17/12 Q10...
LPMA 241630Z 04015KT 9999 BKN015 19/13 Q10...
LPPD 241630Z 09012KT 060V120 9999 FEW014 F...
LPPR 241630Z 34010KT CAVOK 21/08 Q1020=
LPPS 241630Z 07013G23KT 040V110 8000 BKN01...
LPPT 241630Z 05010KT 030V090 9999 FEW048 2...
Últimos QSOs:
2019/03/09-18:22 6m CT1DMC (RUI)
2019/02/15-12:17 2m CT2IBF (JOSé)
2019/01/18-07:31 40m TM49OTAN (PHIL)
2018/09/08-11:04 40m DJ5AV (MICHAEL)
2018/09/08-11:03 40m M3FEH (KARL)
2018/09/08-11:01 40m EB7HQE (JESUS)
  UTC
Rpi-6 CPU Temp: 43.3 °C (241701Z)
IN51oq 1704Z /////KT //// 33/8 Q1020=
20889